Mack, Ohio
Current Conditions -  °F | °C
As of 7:37 AM on Sunday 23 Nov 2014 (Local Time) from KI69 Reporting Station
Overcast Overcast  
Wind Chill: 54°   Ceiling: 3200
Heat Index: 54°   Visibility: 10mi
Dew Point: 41°   Wind: 7mph
Humidity: 62%   Direction: 190°S
Pressure: 30.01"   Gusts: NA
Location:  39.1663°N, 84.6602°W
Report Text: KI69 231237Z AUTO 19006KT 10SM OVC032 12/05 A3001 RMK AO1
Loading
Personal Weather Stations






























Interactive Weather Map New forecast layout! Learn more

10-Day Weather Forecast

Advertisements
Track Severe Weather on mobile